Pagrindinis puslapis
METAR-TAF:

METAR-TAF

Oro uostai :

Hatjajus, Tailandas

platuma: 06-55N, ilguma: 100-26E, Aukštis: 27 m

Dabartinis oras

Ataskaita buvo paskelbta 34 minutes, ne 19:30 UTC
Ramus vėjas
Temperatūra 25°C
Drėgmė 100%
Slėgis 1009 hPa
Matomumas: 9000 m
Mažai debesys ne aukštis 1500 ft
Išsisklaidę debesys ne aukštis 2000 ft
Su prošvaistėmis ne aukštis 10000 ft
lietus

METAR: VTSS 251930Z 00000KT 9000 -RA FEW015 SCT020 BKN100 25/25 Q1009 NOSIG

Laikas: 03:04 (20:04 UTC)

Prognozė

Ataskaita buvo paskelbta 3 valandos ir 4 minutes, ne 17:00 UTC
Prognozė galioja nuo 25 metu 18 UTC su 26 metu 18 UTC
Vėjas 3 kt iš Rytų/Šiaurės Rytų
Matomumas: 9000 m
Išsisklaidę debesys ne aukštis 1500 ft
Su prošvaistėmis ne aukštis 10000 ft
lietus
Laikinai
nuo 25 metu 18 UTC su 25 metu 24 UTC
Matomumas: 3000 m
lietus
Laikinai
nuo 26 metu 00 UTC su 26 metu 06 UTC
Matomumas: 3000 m
lietus

TAF: VTSS 251700Z 2518/2618 06003KT 9000 -RA SCT015 BKN100 TEMPO 2518/2524 3000 RA TEMPO 2600/2606 3000 RA

Orai ataskaitas ir orų prognozės (METAR, TAF).

turimą stotys yra geltonos ir raudonos taškus žemėlapyje.

Perkelti pele per norėdami pamatyti stoties vardą.

Tada spustelėkite, norėdami matyti oro stebėjimo ir prognozės.

Norėdami pakeisti žemėlapį: spustelėkite ant žalios mygtukų su juodo kryžiaus žemyn,; žalią mygtuką su brūkšneliu, jei norite nutolinti; arba žalių rodyklių gretimoms žemėlapius.


METAR-TAF: